A- A+ FrançaisEnglishEspañol中国

le plus proche LFBT Tarbes-Lourdes-PyrénéesLFNA Gap-Tallard LFPT Pontoise-Cormeilles-En-VexinLFMH St-Etienne Boutheon

manche à air

La météo aéronautique pour les pilotes, la préparation du vol avec les METAR (METeorological Aerodrome Report, message d'observation des conditions météorologiques pour l'aviation) et Les TAF (Terminal Aerodrome Forecast : message de prévision à court terme des conditions météorologiques pour l'aviation). Et les autres ressources comme les VAC (Visual Approch Chart) et les NOTAM (Notice To Airman) pour préprer les vols.

Aéroport Cosford (Royaume-Uni) / OACI EGWC

L'altitude de l'aéroport Cosford est de 83 m=272 ft. Il est situé à proximité de Cosford (Royaume-Uni). La météo générale à 5 jours est disponible pour Ryton situé à 3.6 km.

METAR de l'aéroport Cosford - EGWC

EGWC 220850Z 34007KT 0600 FG VV/// 07/07 Q1038 RMK RED

Décodage du METAR de l'aéroport Cosford (GB)

METAR émis par EGWC le mercredi 22 janvier 2020 à 08:50 heure TU. Attention ce METAR est obsolète car il a été émis il y a 22 heure et 40 minutes.

La visibilité est de 0.6 km=0.4 sm, il y a du brouillard.

La température est de 7°C=45 °F et le point rosée est de 7°C=45 °F . Ce qui correspond à 100% d'humidité relative.

Le QNH est de 1038 hPa=30.65 inHg

Vent de 7 kt=13 km/h, orienté à 340°.

Nuages : VV0 ft=0 mètres.

FG

RMK RED

TAF de l'aéroport Cosford - EGWC

EGWC 220901Z 2209/2218 33004KT 9999 BKN005 TEMPO 2209/2218 4000 -DZ BR SCT003 PROB30 TEMPO 2209/2218 0600 FG OVC002

EGWC 220901Z 2209/2218 33004KT 9999 couverture nuageuse fragmentée à 005 temporairement 2209/2218 4000 faible DZ brume nuages épars à 003 probabilité de 30% d'avoir temporairement 2209/2218 0600 brouillard couverture nuageuse soudée à 002

Aéroport à proximité de Cosford

Météo générale à 5 jours à Ryton (3.6 km)EGBO Aéroport Halfpenny Green (14 km)EGOE Aéroport Ternhill (30 km)EGOS Aéroport Shawbury (30 km)EGCV Aéroport Sleap (38 km)EGCT Aéroport Tilstock (40 km)EGBM Aéroport Tatenhill (41 km)

Vue aérienne de l'aéroport Cosford

NOTAM de l'aéroport Cosford

Les NOTAM sont fournis sans aucune garantie de leur actualité. Le pilote est le seul responsable de la vérification de sa validité avant de l'utiliser opérationnellement pour préparer un vol ou l'utiliser lors de sa navigation.

NOTAM Air/ground facility (à partir du lundi 9 décembre 2019 à 16:30 jusqu'au lundi 2 mars 2020 à 23:59)

U5592/19 NOTAMN
Q) EGTT/QCAAS/IV/B /A /000/999/5238N00218W005
A) EGWC B) 1912091630 C) 2003012359
E) UHF FREQUENCIES AT RAF COSFORD UNAVAILABLE.
CREATED: 09 Dec 2019 16:00:00
SOURCE: EUECYIYN

Sources des données